Time;durP1;ratioP1;P1;durP2;ratioP2;P2;SDS_P1;SDS_P2;PMS_P1;PMS_P2;Temp;Humidity;BMP_temperature;BMP_pressure;BME280_temperature;BME280_humidity;BME280_pressure;Samples;Min_cycle;Max_cycle;Signal;HPM_P1;HPM_P2
2021/10/28 00:14:33;;;;;;;;;;;;;;;17.60;64.81;101422.31;4977043;28;119752;-70
2021/10/28 00:17:00;;;;;;;21.25;8.13;;;;;;;17.52;64.41;101403.78;4959207;28;120213;-69
2021/10/28 00:19:27;;;;;;;18.33;8.88;;;;;;;17.60;64.81;101416.75;4939376;28;120719;-69
2021/10/28 00:21:54;;;;;;;16.02;8.02;;;;;;;17.62;64.62;101410.72;4978406;28;120088;-69
2021/10/28 00:24:20;;;;;;;24.55;9.48;;;;;;;17.61;64.58;101407.19;4962105;28;120726;-69
2021/10/28 00:26:49;;;;;;;15.48;7.70;;;;;;;17.63;65.00;101413.00;4975934;28;119912;-69
2021/10/28 00:29:18;;;;;;;19.00;9.50;;;;;;;17.65;64.60;101410.53;4974848;28;120258;-70
2021/10/28 00:31:46;;;;;;;18.40;8.75;;;;;;;17.64;64.44;101409.00;4975429;28;120149;-69
2021/10/28 00:34:13;;;;;;;16.00;7.95;;;;;;;17.66;64.82;101414.81;4967326;28;120209;-69
2021/10/28 00:36:39;;;;;;;17.80;9.57;;;;;;;17.65;64.70;101407.75;4975585;28;121099;-70
2021/10/28 00:39:10;;;;;;;18.85;9.77;;;;;;;17.66;64.21;101405.72;4973210;28;119520;-69
2021/10/28 00:41:38;;;;;;;20.27;10.25;;;;;;;17.64;63.92;101411.75;4981115;28;120071;-70
2021/10/28 00:44:04;;;;;;;18.27;9.85;;;;;;;17.63;64.01;101413.00;4962167;28;119594;-70
2021/10/28 00:46:32;;;;;;;21.08;11.27;;;;;;;17.61;63.75;101412.72;4978132;28;119968;-69
2021/10/28 00:49:03;;;;;;;20.20;10.77;;;;;;;17.60;63.81;101418.75;4977480;28;119862;-69
2021/10/28 00:51:30;;;;;;;21.63;11.10;;;;;;;17.57;63.95;101414.94;4986091;28;119666;-69
2021/10/28 00:53:57;;;;;;;21.13;12.02;;;;;;;17.56;64.37;101405.09;4971436;28;120396;-69
2021/10/28 00:56:24;;;;;;;25.63;13.48;;;;;;;17.56;64.13;101416.19;4975403;28;119680;-69
2021/10/28 00:58:51;;;;;;;20.98;11.60;;;;;;;17.56;64.35;101416.19;4973845;28;119925;-70
2021/10/28 01:01:17;;;;;;;23.17;12.70;;;;;;;17.56;64.81;101410.66;4973870;28;120044;-70
2021/10/28 01:03:44;;;;;;;30.38;14.90;;;;;;;17.57;64.17;101412.19;4974710;28;120655;-70
2021/10/28 01:06:12;;;;;;;24.45;13.02;;;;;;;17.55;64.46;101400.03;4971126;28;120210;-69
2021/10/28 01:08:45;;;;;;;30.25;14.93;;;;;;;17.54;63.70;101404.06;4979979;28;119743;-70
2021/10/28 01:11:12;;;;;;;24.95;14.32;;;;;;;17.52;64.22;101406.53;4992273;28;119601;-69
2021/10/28 01:13:38;;;;;;;25.27;14.75;;;;;;;17.49;64.39;101399.94;4970182;28;120801;-69
2021/10/28 01:16:06;;;;;;;22.50;14.10;;;;;;;17.52;64.62;101403.78;4975155;28;121038;-69
2021/10/28 01:18:35;;;;;;;20.55;13.18;;;;;;;17.52;64.45;101409.31;4974092;28;119450;-69
2021/10/28 01:21:03;;;;;;;24.75;14.25;;;;;;;17.49;64.31;101402.69;4970793;28;119680;-70
2021/10/28 01:23:28;;;;;;;28.25;15.40;;;;;;;17.48;64.39;101410.25;4979329;28;119887;-70
2021/10/28 01:25:59;;;;;;;25.05;15.70;;;;;;;17.48;64.34;101401.94;4973599;28;121619;-69
2021/10/28 01:28:29;;;;;;;24.17;14.38;;;;;;;17.49;64.65;101405.47;4973261;28;119870;-70
2021/10/28 01:30:58;;;;;;;26.05;14.13;;;;;;;17.37;64.26;101387.16;4979955;28;120186;-69
2021/10/28 01:33:25;;;;;;;21.75;13.63;;;;;;;17.43;64.48;101397.06;4977648;28;120285;-69
2021/10/28 01:35:51;;;;;;;25.50;14.15;;;;;;;17.41;64.14;101398.81;4979312;28;120798;-70
2021/10/28 01:38:18;;;;;;;25.15;14.48;;;;;;;17.33;64.07;101386.59;4983601;28;120204;-69
2021/10/28 01:40:55;;;;;;;33.17;14.25;;;;;;;17.37;64.25;101392.69;4983338;28;120146;-69
2021/10/28 01:43:21;;;;;;;22.67;12.82;;;;;;;17.36;64.68;101402.25;4984049;28;119668;-69
2021/10/28 01:45:47;;;;;;;21.92;12.98;;;;;;;17.37;64.74;101403.78;4969175;28;120091;-70
2021/10/28 01:48:13;;;;;;;24.25;13.48;;;;;;;17.36;64.68;101403.03;4986319;28;119603;-71
2021/10/28 01:50:41;;;;;;;30.15;14.07;;;;;;;17.36;63.90;101397.47;4964178;28;119507;-70
2021/10/28 01:53:06;;;;;;;22.30;13.18;;;;;;;17.34;64.04;101399.19;4979718;28;120207;-70
2021/10/28 01:55:32;;;;;;;21.65;13.13;;;;;;;17.31;64.22;101400.94;4981112;28;122194;-70
2021/10/28 01:57:58;;;;;;;23.63;12.73;;;;;;;17.28;63.94;101396.34;4975374;28;119491;-70
2021/10/28 02:00:23;;;;;;;30.77;12.65;;;;;;;17.30;63.66;101393.09;4985650;28;119726;-70
2021/10/28 02:02:50;;;;;;;20.10;12.43;;;;;;;17.31;63.90;101389.06;4981914;28;119816;-69
2021/10/28 02:05:18;;;;;;;21.02;13.10;;;;;;;17.32;64.40;101393.38;4984392;28;120422;-70
2021/10/28 02:07:46;;;;;;;21.08;11.73;;;;;;;17.32;64.26;101391.38;4975698;28;120541;-70
2021/10/28 02:10:12;;;;;;;26.63;13.80;;;;;;;17.32;63.94;101390.59;4982855;28;119740;-70
2021/10/28 02:12:39;;;;;;;25.73;12.95;;;;;;;17.34;63.68;101390.88;4982301;28;119995;-70
2021/10/28 02:15:07;;;;;;;25.75;14.38;;;;;;;17.36;64.02;101396.72;4963860;28;119499;-69
2021/10/28 02:17:33;;;;;;;23.45;15.52;;;;;;;17.25;64.13;101379.88;4977629;28;119558;-70
2021/10/28 02:19:59;;;;;;;24.73;15.18;;;;;;;17.33;63.42;101387.34;4969984;28;120213;-69
2021/10/28 02:22:25;;;;;;;27.75;16.25;;;;;;;17.33;64.06;101392.13;4984216;28;120326;-70
2021/10/28 02:24:51;;;;;;;30.75;15.68;;;;;;;17.33;64.04;101392.88;4976257;28;121772;-69
2021/10/28 02:27:17;;;;;;;28.42;16.33;;;;;;;17.37;63.68;101393.47;4964169;28;119717;-70
2021/10/28 02:29:43;;;;;;;26.77;16.13;;;;;;;17.35;63.67;101395.19;4973726;28;119724;-70
2021/10/28 02:32:09;;;;;;;31.38;17.02;;;;;;;17.36;63.09;101403.03;4985559;28;120401;-70
2021/10/28 02:34:38;;;;;;;27.90;17.08;;;;;;;17.36;63.39;101399.47;4982033;28;120441;-71
2021/10/28 02:37:05;;;;;;;27.38;17.70;;;;;;;17.37;63.60;101395.47;4979730;28;119619;-70
2021/10/28 02:39:31;;;;;;;30.55;17.13;;;;;;;17.33;63.34;101392.88;4976780;28;119553;-69
2021/10/28 02:41:57;;;;;;;25.58;16.13;;;;;;;17.36;63.73;101396.72;4972575;28;119946;-69
2021/10/28 02:44:23;;;;;;;25.83;18.40;;;;;;;17.35;63.84;101395.94;4984720;28;119897;-70
2021/10/28 02:46:48;;;;;;;31.67;17.80;;;;;;;17.34;63.67;101394.41;4970098;28;119792;-69
2021/10/28 02:49:15;;;;;;;27.60;17.48;;;;;;;17.34;63.75;101393.66;4983853;28;120195;-70
2021/10/28 02:51:46;;;;;;;29.08;15.85;;;;;;;17.31;63.38;101386.31;4983077;28;119731;-70
2021/10/28 02:54:16;;;;;;;25.77;15.90;;;;;;;17.27;63.73;101388.47;4970687;28;119605;-69
2021/10/28 02:56:42;;;;;;;29.80;16.73;;;;;;;17.25;63.50;101391.72;4970209;28;119841;-70
2021/10/28 02:59:08;;;;;;;24.55;14.60;;;;;;;17.23;63.23;101382.38;4983377;28;119758;-70
2021/10/28 03:01:39;;;;;;;23.90;15.52;;;;;;;17.24;63.68;101383.91;4976929;28;119932;-70
2021/10/28 03:04:05;;;;;;;27.08;16.45;;;;;;;17.21;63.27;101387.63;4980307;28;120987;-70
2021/10/28 03:06:32;;;;;;;29.98;17.75;;;;;;;17.22;63.23;101383.63;4977411;28;120178;-69
2021/10/28 03:08:58;;;;;;;29.50;18.30;;;;;;;17.18;63.67;101373.50;4974749;28;120292;-70
2021/10/28 03:11:24;;;;;;;27.67;18.25;;;;;;;17.17;63.92;101369.19;4980606;28;119773;-69
2021/10/28 03:13:53;;;;;;;33.85;20.67;;;;;;;17.13;63.64;101362.31;4963350;28;121607;-69
2021/10/28 03:16:27;;;;;;;32.28;20.88;;;;;;;17.12;63.43;101361.56;4963262;28;119987;-70
2021/10/28 03:27:27;;;;;;;34.85;21.73;;;;;;;17.03;63.32;101371.97;4970436;28;120697;-70
2021/10/28 03:29:52;;;;;;;34.85;22.02;;;;;;;17.00;63.45;101370.91;4973013;28;120268;-70
2021/10/28 03:32:20;;;;;;;36.55;23.48;;;;;;;16.98;63.32;101367.09;4980898;28;124326;-69
2021/10/28 03:34:48;;;;;;;37.08;22.33;;;;;;;17.00;63.28;101365.38;4976761;28;120231;-69
2021/10/28 03:37:28;;;;;;;35.60;22.73;;;;;;;17.01;63.70;101369.66;4980171;28;120120;-70
2021/10/28 03:48:06;;;;;;;35.88;21.73;;;;;;;17.01;64.11;101372.44;4951936;28;121167;-69
2021/10/28 04:04:14;;;;;;;41.72;24.58;;;;;;;16.95;63.63;101368.81;4984356;28;119945;-69
2021/10/28 04:30:37;;;;;;;44.58;28.00;;;;;;;16.90;64.14;101365.94;4983771;28;120693;-69
2021/10/28 04:33:03;;;;;;;48.42;28.50;;;;;;;16.91;64.34;101361.94;4984473;28;119590;-69
2021/10/28 04:35:28;;;;;;;48.00;28.40;;;;;;;16.92;64.42;101364.22;4970403;28;119873;-69
2021/10/28 04:37:54;;;;;;;46.70;27.67;;;;;;;16.90;64.38;101361.19;4971532;28;119462;-69
2021/10/28 04:40:20;;;;;;;42.63;26.75;;;;;;;16.93;64.65;101365.00;4983988;28;120196;-69
2021/10/28 04:42:48;;;;;;;45.33;28.85;;;;;;;16.92;64.42;101367.00;4982282;28;120184;-69
2021/10/28 04:45:14;;;;;;;43.85;28.40;;;;;;;16.91;64.29;101368.25;4974616;28;119922;-69
2021/10/28 04:47:39;;;;;;;45.65;27.33;;;;;;;16.92;64.74;101363.47;4978198;28;119778;-71
2021/10/28 04:50:06;;;;;;;48.90;26.92;;;;;;;16.94;64.90;101360.97;4968850;28;120476;-69
2021/10/28 04:52:32;;;;;;;43.53;27.52;;;;;;;16.94;64.84;101356.19;4983290;28;119817;-69
2021/10/28 04:54:57;;;;;;;43.53;25.90;;;;;;;16.81;64.77;101339.13;4984642;28;121100;-70
2021/10/28 04:57:23;;;;;;;43.17;25.92;;;;;;;16.94;64.84;101361.75;4978129;28;119588;-69
2021/10/28 04:59:51;;;;;;;42.88;26.38;;;;;;;16.96;64.50;101362.03;4981516;28;119864;-70
2021/10/28 05:02:17;;;;;;;43.30;26.60;;;;;;;16.96;64.44;101353.72;4965896;28;120477;-70
2021/10/28 05:04:43;;;;;;;47.78;25.35;;;;;;;16.98;64.45;101359.53;4983474;28;119792;-69
2021/10/28 05:07:08;;;;;;;38.55;24.58;;;;;;;16.95;64.63;101352.19;4982014;28;119711;-70
2021/10/28 05:09:39;;;;;;;36.15;21.77;;;;;;;16.96;65.24;101364.03;4975337;28;120367;-69
2021/10/28 05:12:05;;;;;;;35.67;23.65;;;;;;;16.97;64.73;101360.78;4980382;28;119859;-69
2021/10/28 05:14:31;;;;;;;41.13;24.63;;;;;;;16.99;64.97;101366.59;4985344;28;119859;-69
2021/10/28 05:16:58;;;;;;;43.35;24.35;;;;;;;16.96;64.76;101355.72;4988958;28;119829;-69
2021/10/28 05:19:25;;;;;;;37.47;24.50;;;;;;;16.96;64.68;101359.25;4984428;28;120749;-69
2021/10/28 05:21:51;;;;;;;42.03;26.20;;;;;;;16.94;64.68;101361.75;4953488;28;120296;-69
2021/10/28 05:24:16;;;;;;;37.83;24.27;;;;;;;16.92;64.99;101353.16;4985029;28;120220;-70
2021/10/28 05:26:42;;;;;;;41.72;25.17;;;;;;;16.95;64.69;101357.72;4965270;28;119985;-70
2021/10/28 05:29:08;;;;;;;40.67;24.95;;;;;;;16.97;64.75;101355.25;4979068;28;119990;-69
2021/10/28 05:31:34;;;;;;;46.08;26.60;;;;;;;16.95;64.94;101362.50;4976898;28;120601;-69
2021/10/28 05:33:59;;;;;;;47.85;26.02;;;;;;;16.97;65.21;101358.00;4979928;28;120418;-69
2021/10/28 05:36:26;;;;;;;39.83;24.65;;;;;;;16.98;65.31;101354.00;4978594;28;120030;-69
2021/10/28 05:38:53;;;;;;;43.80;25.98;;;;;;;16.96;64.76;101364.81;4983141;28;120158;-70
2021/10/28 05:41:18;;;;;;;47.67;26.58;;;;;;;16.95;65.01;101363.28;4979287;28;119723;-69
2021/10/28 05:43:44;;;;;;;45.53;26.65;;;;;;;16.92;64.71;101364.22;4962295;28;119628;-69
2021/10/28 05:46:10;;;;;;;43.95;27.30;;;;;;;16.91;64.95;101359.94;4982291;28;120522;-69
2021/10/28 05:48:35;;;;;;;43.88;26.55;;;;;;;16.90;64.86;101361.19;4983020;28;119513;-69
2021/10/28 05:51:01;;;;;;;45.33;25.67;;;;;;;16.88;65.21;101360.91;4983573;28;120011;-69
2021/10/28 05:53:27;;;;;;;45.63;27.50;;;;;;;16.86;65.24;101353.06;4974395;28;119571;-69
2021/10/28 05:55:53;;;;;;;43.80;25.90;;;;;;;16.91;64.68;101361.94;4972000;28;120426;-70
2021/10/28 05:58:18;;;;;;;42.90;25.25;;;;;;;16.92;64.74;101363.47;4969732;28;120012;-70
2021/10/28 06:00:44;;;;;;;48.15;27.40;;;;;;;16.89;65.20;101351.34;4985874;28;120675;-69
2021/10/28 06:03:12;;;;;;;43.90;25.60;;;;;;;16.92;64.97;101361.47;4971148;28;120175;-69
2021/10/28 06:05:37;;;;;;;41.63;25.05;;;;;;;16.92;65.00;101363.47;4977227;28;123419;-69
2021/10/28 06:08:04;;;;;;;40.97;24.70;;;;;;;16.90;64.99;101365.94;4971901;28;121499;-70
2021/10/28 06:10:32;;;;;;;39.35;25.98;;;;;;;16.88;64.90;101352.59;4980057;28;120048;-69
2021/10/28 06:13:01;;;;;;;36.25;23.95;;;;;;;16.90;64.81;101354.88;4973608;28;119413;-70
2021/10/28 06:15:30;;;;;;;39.70;24.05;;;;;;;16.87;65.09;101362.91;4972781;28;120530;-69
2021/10/28 06:17:59;;;;;;;39.10;23.42;;;;;;;16.85;64.83;101362.63;4974042;28;120059;-69
2021/10/28 06:20:25;;;;;;;37.30;22.95;;;;;;;16.84;64.78;101365.88;4981364;28;119611;-70
2021/10/28 06:22:52;;;;;;;35.25;22.83;;;;;;;16.85;64.86;101365.38;4969937;28;122021;-69
2021/10/28 06:25:19;;;;;;;38.33;23.42;;;;;;;16.84;64.56;101361.09;4981973;28;119288;-69
2021/10/28 06:27:45;;;;;;;34.25;21.80;;;;;;;16.83;64.78;101354.00;4979325;28;119802;-69
2021/10/28 06:30:11;;;;;;;34.65;22.45;;;;;;;16.81;64.39;101364.81;4975373;28;121110;-70
2021/10/28 06:32:52;;;;;;;32.63;22.60;;;;;;;16.77;64.54;101374.53;4941455;28;119551;-70
2021/10/28 06:35:18;;;;;;;34.45;20.40;;;;;;;16.77;64.82;101364.22;4976986;28;121112;-70
2021/10/28 06:37:48;;;;;;;35.90;21.75;;;;;;;16.76;64.62;101370.22;4977631;28;119507;-69
2021/10/28 06:40:17;;;;;;;32.70;21.48;;;;;;;16.76;64.54;101373.00;4978565;28;120825;-70
2021/10/28 06:42:46;;;;;;;34.60;21.83;;;;;;;16.72;64.32;101378.75;4977610;28;120415;-69
2021/10/28 06:45:12;;;;;;;34.30;21.80;;;;;;;16.69;64.54;101374.16;4979117;28;119719;-70
2021/10/28 06:47:38;;;;;;;31.75;20.95;;;;;;;16.69;64.90;101370.63;4980997;28;120027;-69
2021/10/28 06:50:06;;;;;;;33.00;20.90;;;;;;;16.70;64.41;101377.69;4979384;28;120215;-69
2021/10/28 06:52:57;;;;;;;34.92;21.90;;;;;;;16.67;64.21;101378.63;4969874;28;119819;-70
2021/10/28 06:55:37;;;;;;;33.85;21.73;;;;;;;16.67;64.70;101378.63;4958566;28;120392;-69
2021/10/28 07:03:33;;;;;;;36.00;22.75;;;;;;;16.65;64.07;101378.31;4974947;28;121357;-70
2021/10/28 07:06:10;;;;;;;34.30;21.85;;;;;;;16.61;64.05;101378.50;4982846;28;119775;-69
2021/10/28 07:08:39;;;;;;;33.90;22.40;;;;;;;16.64;64.21;101388.66;4982917;28;119928;-69
2021/10/28 07:11:11;;;;;;;37.90;24.05;;;;;;;16.64;64.44;101382.34;4958487;28;119614;-70
2021/10/28 07:13:40;;;;;;;35.60;23.42;;;;;;;16.64;64.73;101383.09;4976770;28;120299;-70
2021/10/28 07:26:44;;;;;;;39.47;24.83;;;;;;;16.48;65.31;101381.53;4977313;28;120396;-70
2021/10/28 07:34:47;;;;;;;39.33;24.33;;;;;;;16.53;64.91;101386.41;4974553;28;119497;-70
2021/10/28 08:18:01;;;;;;;40.55;25.10;;;;;;;16.85;65.69;101373.69;4981551;28;119974;-70
2021/10/28 08:23:08;;;;;;;45.28;27.98;;;;;;;16.92;65.39;101369.78;4966484;28;119662;-69
2021/10/28 08:31:03;;;;;;;;;;;;;;;17.08;65.78;101380.38;4979625;28;120352;-70
2021/10/28 08:33:28;;;;;;;50.42;29.90;;;;;;;17.07;65.31;101376.09;4944436;28;119850;-70
2021/10/28 08:36:06;;;;;;;52.33;30.98;;;;;;;17.02;65.38;101376.75;4977069;28;120156;-69
2021/10/28 08:38:31;;;;;;;46.95;29.40;;;;;;;16.99;65.37;101363.06;4968509;28;119446;-69
2021/10/28 08:40:57;;;;;;;45.25;28.38;;;;;;;16.96;65.72;101359.25;4976939;28;119828;-70
2021/10/28 08:43:26;;;;;;;49.22;30.10;;;;;;;16.98;65.82;101356.78;4963172;28;120348;-70
2021/10/28 08:45:53;;;;;;;50.65;31.35;;;;;;;17.00;65.61;101359.81;4976630;28;120106;-70
2021/10/28 08:48:27;;;;;;;42.38;29.17;;;;;;;17.00;66.02;101361.84;4977133;28;120441;-70
2021/10/28 08:51:16;;;;;;;45.92;30.80;;;;;;;17.03;65.26;101358.88;4974970;28;119894;-69
2021/10/28 09:24:55;;;;;;;35.60;20.55;;;;;;;17.01;65.57;101347.50;4975150;28;120747;-69
2021/10/28 09:27:32;;;;;;;37.05;21.98;;;;;;;16.99;65.32;101341.66;4949110;28;121319;-69
2021/10/28 09:30:10;;;;;;;34.05;21.58;;;;;;;17.01;65.30;101343.97;4956218;28;120044;-69
2021/10/28 09:52:09;;;;;;;33.70;20.60;;;;;;;17.24;64.90;101347.84;4983276;28;120087;-69
2021/10/28 09:54:52;;;;;;;29.85;18.65;;;;;;;17.29;64.91;101352.75;4968332;28;120089;-69
2021/10/28 10:00:12;;;;;;;34.95;18.25;;;;;;;17.28;64.86;101326.25;4974085;28;120347;-69
2021/10/28 10:02:55;;;;;;;27.85;16.83;;;;;;;17.36;64.32;101330.91;4976864;28;119961;-69
2021/10/28 10:05:27;;;;;;;30.48;17.60;;;;;;;17.39;64.57;101338.28;4967817;28;120158;-69
2021/10/28 10:07:56;;;;;;;27.48;18.08;;;;;;;17.40;64.17;101342.56;4987649;28;119975;-69
2021/10/28 10:10:23;;;;;;;29.83;17.27;;;;;;;17.41;64.28;101340.56;4987931;28;120224;-69
2021/10/28 10:12:49;;;;;;;30.40;16.83;;;;;;;17.43;64.40;101341.59;4994837;28;121362;-68
2021/10/28 10:15:16;;;;;;;30.63;17.33;;;;;;;17.46;64.43;101345.41;4984098;28;119821;-69
2021/10/28 10:17:52;;;;;;;27.27;17.25;;;;;;;17.45;63.71;101341.13;4976088;28;120657;-69
2021/10/28 10:20:21;;;;;;;24.95;17.10;;;;;;;17.49;63.74;101344.44;4955629;28;120478;-69
2021/10/28 11:29:07;;;;;;;21.33;10.40;;;;;;;18.08;61.16;101297.84;4974087;28;120469;-70
2021/10/28 12:28:53;;;;;;;16.30;8.23;;;;;;;18.50;60.63;101235.41;4977676;28;120077;-69
2021/10/28 12:45:30;;;;;;;10.75;6.70;;;;;;;18.59;60.46;101198.34;4985281;28;119521;-69
2021/10/28 13:02:19;;;;;;;14.95;6.45;;;;;;;18.66;59.95;101159.00;4961419;28;120057;-69
2021/10/28 13:48:28;;;;;;;;;;;;;;;18.67;60.41;101141.06;4980530;28;120612;-69
2021/10/28 13:51:12;;;;;;;11.60;7.07;;;;;;;18.68;60.92;101142.59;4964535;28;119983;-69
2021/10/28 14:16:10;;;;;;;11.17;7.03;;;;;;;18.62;60.89;101116.78;4971604;28;119909;-68
2021/10/28 15:01:49;;;;;;;12.35;7.40;;;;;;;18.49;60.73;101088.66;4975722;28;120553;-69
2021/10/28 15:36:58;;;;;;;;;;;;;;;17.94;62.32;101064.78;4964666;28;121551;-69
2021/10/28 16:23:16;;;;;;;11.93;7.90;;;;;;;17.11;63.94;101015.56;4982674;28;120642;-69
2021/10/28 16:25:42;;;;;;;21.05;12.50;;;;;;;17.08;64.09;101016.53;4982139;28;119767;-69
2021/10/28 16:28:08;;;;;;;15.13;10.45;;;;;;;17.02;64.07;101019.22;4977586;28;120250;-69
2021/10/28 16:30:34;;;;;;;14.23;9.35;;;;;;;17.01;64.15;101023.25;4974167;28;119676;-69
2021/10/28 16:33:00;;;;;;;16.83;10.50;;;;;;;16.99;64.04;101025.75;4970801;28;122073;-69
2021/10/28 16:35:25;;;;;;;17.30;11.10;;;;;;;16.92;64.19;101015.09;4969918;28;119985;-69
2021/10/28 16:37:52;;;;;;;17.65;9.30;;;;;;;16.91;63.90;101018.34;4965274;28;121127;-69
2021/10/28 16:40:18;;;;;;;16.17;8.38;;;;;;;16.87;64.19;101015.78;4975359;28;119606;-69
2021/10/28 16:42:46;;;;;;;15.75;8.07;;;;;;;16.83;64.59;101015.25;4976319;28;121282;-69
2021/10/28 16:45:12;;;;;;;11.70;7.72;;;;;;;16.77;64.63;101006.84;4976744;28;119591;-69
2021/10/28 16:47:37;;;;;;;12.13;7.68;;;;;;;16.76;64.69;100999.03;4977389;28;120358;-69
2021/10/28 16:50:05;;;;;;;13.15;8.65;;;;;;;16.73;64.68;101005.53;4957718;28;119939;-69
2021/10/28 16:52:30;;;;;;;15.57;9.52;;;;;;;16.74;64.81;100993.22;4975643;28;119547;-69
2021/10/28 16:54:56;;;;;;;11.18;7.80;;;;;;;16.72;64.96;100990.16;4978305;28;120826;-69
2021/10/28 16:57:22;;;;;;;14.50;7.22;;;;;;;16.71;65.05;100988.63;4974418;28;119945;-69
2021/10/28 16:59:48;;;;;;;11.07;7.00;;;;;;;16.70;64.95;100992.66;4978277;28;119990;-69
2021/10/28 17:02:14;;;;;;;12.27;7.40;;;;;;;16.67;65.31;100988.84;4976229;28;120022;-69
2021/10/28 17:04:43;;;;;;;10.57;6.38;;;;;;;16.65;65.31;100983.00;4979255;28;119519;-69
2021/10/28 17:07:09;;;;;;;12.32;6.95;;;;;;;16.64;65.03;100980.72;4977843;28;119921;-69
2021/10/28 17:09:34;;;;;;;9.27;6.90;;;;;;;16.62;65.16;100991.53;4974246;28;119543;-69
2021/10/28 17:12:03;;;;;;;9.80;6.07;;;;;;;16.58;65.21;100980.66;4974045;28;119627;-69
2021/10/28 17:14:29;;;;;;;9.35;6.28;;;;;;;16.58;65.37;100984.19;4958334;28;120122;-68
2021/10/28 17:16:55;;;;;;;10.15;6.75;;;;;;;16.57;65.45;100990.22;4961396;28;120041;-69
2021/10/28 17:19:22;;;;;;;10.23;7.30;;;;;;;16.54;65.13;100997.47;4973834;28;120190;-69
2021/10/28 17:21:49;;;;;;;10.02;6.78;;;;;;;16.50;65.04;100996.16;4971603;28;122780;-69
2021/10/28 17:27:06;;;;;;;14.68;7.45;;;;;;;16.47;65.51;101003.41;4977749;28;120323;-69
2021/10/28 17:29:33;;;;;;;12.43;7.63;;;;;;;16.47;65.21;100988.81;4971980;28;119934;-69
2021/10/28 17:31:59;;;;;;;14.30;8.27;;;;;;;16.44;65.29;100993.31;4977401;28;119866;-69
2021/10/28 17:34:26;;;;;;;16.58;8.70;;;;;;;16.44;65.39;100993.31;4973838;28;120556;-69
2021/10/28 17:36:53;;;;;;;11.95;7.97;;;;;;;16.42;65.32;100998.56;4972387;28;120141;-69
2021/10/28 17:39:24;;;;;;;16.85;9.20;;;;;;;16.41;65.43;101005.38;4972348;28;119627;-69
2021/10/28 17:41:50;;;;;;;14.60;10.70;;;;;;;16.39;65.66;100998.78;4973104;28;120165;-69
2021/10/28 17:44:19;;;;;;;12.77;9.00;;;;;;;16.37;65.33;101004.81;4975531;28;120231;-69
2021/10/28 17:46:48;;;;;;;17.33;13.30;;;;;;;16.36;65.88;100991.44;4975421;28;119949;-69
2021/10/28 17:49:14;;;;;;;18.17;14.27;;;;;;;16.34;65.34;100988.41;4980507;28;119934;-69
2021/10/28 17:51:41;;;;;;;12.88;10.05;;;;;;;16.31;65.49;100995.66;4977782;28;120048;-69
2021/10/28 17:54:10;;;;;;;16.15;9.85;;;;;;;16.30;65.41;100991.34;4976076;28;120304;-69
2021/10/28 17:56:37;;;;;;;16.45;11.07;;;;;;;16.27;65.50;100992.31;4974354;28;120933;-69
2021/10/28 17:59:05;;;;;;;12.95;7.97;;;;;;;16.25;65.18;100992.03;4970702;28;120252;-69
2021/10/28 18:01:35;;;;;;;16.02;8.80;;;;;;;16.23;65.26;100983.47;4975764;28;120700;-69
2021/10/28 18:04:02;;;;;;;17.13;11.82;;;;;;;16.16;65.44;100976.34;4976996;28;121537;-69
2021/10/28 18:06:30;;;;;;;16.17;11.40;;;;;;;16.15;65.43;100974.81;4966978;28;122843;-69
2021/10/28 18:08:56;;;;;;;16.52;12.18;;;;;;;16.12;65.61;100967.47;4975121;28;121821;-69
2021/10/28 18:11:27;;;;;;;16.17;10.52;;;;;;;16.10;65.18;100963.66;4993108;28;120316;-69
2021/10/28 18:13:57;;;;;;;14.70;10.48;;;;;;;16.06;65.63;100957.53;4992563;28;120416;-69
2021/10/28 18:16:25;;;;;;;11.82;8.85;;;;;;;16.03;65.36;100956.50;4982175;28;119970;-69
2021/10/28 18:18:56;;;;;;;14.30;9.75;;;;;;;15.96;65.25;100948.63;4985736;28;120552;-69
2021/10/28 18:21:24;;;;;;;18.35;13.88;;;;;;;15.98;65.60;100953.66;4953094;28;122302;-69
2021/10/28 18:23:50;;;;;;;13.98;10.10;;;;;;;15.91;65.50;100946.53;4972742;28;119895;-69
2021/10/28 18:26:18;;;;;;;13.05;9.45;;;;;;;15.86;65.76;100936.91;4989507;28;121007;-68
2021/10/28 18:28:44;;;;;;;14.48;10.45;;;;;;;15.88;65.72;100941.97;4988422;28;119970;-69
2021/10/28 18:31:10;;;;;;;12.93;8.85;;;;;;;15.84;65.65;100941.38;4992037;28;119997;-69
2021/10/28 18:33:36;;;;;;;12.88;9.10;;;;;;;15.81;65.86;100939.59;4971729;28;120357;-69
2021/10/28 18:36:04;;;;;;;16.73;9.57;;;;;;;15.81;65.82;100943.09;4977108;28;120288;-68
2021/10/28 18:38:32;;;;;;;16.17;9.73;;;;;;;15.80;65.95;100936.06;4979459;28;119541;-69
2021/10/28 18:40:59;;;;;;;13.38;8.43;;;;;;;15.81;65.80;100940.34;4962559;28;122522;-68
2021/10/28 18:43:26;;;;;;;11.40;8.60;;;;;;;15.79;66.00;100937.28;4977059;28;119973;-69
2021/10/28 18:45:52;;;;;;;12.63;7.88;;;;;;;15.77;65.59;100933.50;4981640;28;119561;-69
2021/10/28 18:48:18;;;;;;;13.52;8.23;;;;;;;15.74;65.78;100929.69;4979090;28;121980;-69
2021/10/28 18:50:44;;;;;;;12.38;7.85;;;;;;;15.74;66.29;100926.16;4980348;28;120552;-68
2021/10/28 18:53:10;;;;;;;11.93;7.47;;;;;;;15.72;66.11;100929.41;4976992;28;119352;-69
2021/10/28 18:55:36;;;;;;;10.30;7.63;;;;;;;15.71;66.17;100919.59;4966717;28;120152;-68
2021/10/28 18:58:03;;;;;;;12.35;7.90;;;;;;;15.72;66.39;100923.13;4982487;28;120078;-69
2021/10/28 19:00:29;;;;;;;9.75;7.40;;;;;;;15.70;65.97;100926.34;4982165;28;120064;-69
2021/10/28 19:02:55;;;;;;;11.75;7.80;;;;;;;15.59;66.21;100904.81;4973520;28;120019;-69
2021/10/28 19:05:21;;;;;;;11.20;7.28;;;;;;;15.69;65.84;100918.53;4971269;28;119437;-69
2021/10/28 19:07:48;;;;;;;12.93;7.97;;;;;;;15.69;66.17;100915.78;4969617;28;119951;-69
2021/10/28 19:10:17;;;;;;;11.05;7.90;;;;;;;15.67;66.00;100909.97;4976688;28;120325;-69
2021/10/28 19:12:45;;;;;;;13.30;8.45;;;;;;;15.68;66.48;100906.72;4959920;28;120004;-69
2021/10/28 19:15:11;;;;;;;10.43;7.35;;;;;;;15.69;66.09;100913.78;4985345;28;120193;-68
2021/10/28 19:17:42;;;;;;;13.35;11.05;;;;;;;15.69;66.54;100907.47;4980481;28;119838;-69
2021/10/28 19:20:09;;;;;;;28.77;23.70;;;;;;;15.67;66.52;100905.19;4978074;28;119980;-69
2021/10/28 19:22:35;;;;;;;20.65;16.02;;;;;;;15.69;66.72;100902.72;4972725;28;119455;-68
2021/10/28 19:25:04;;;;;;;13.60;9.98;;;;;;;15.69;66.54;100901.94;4980546;28;119648;-69
2021/10/28 19:27:30;;;;;;;12.20;8.23;;;;;;;15.68;66.60;100909.50;4947865;28;120630;-69
2021/10/28 19:30:02;;;;;;;13.35;8.48;;;;;;;15.69;66.58;100902.72;4980807;28;119467;-69
2021/10/28 19:32:29;;;;;;;10.48;7.20;;;;;;;15.65;66.47;100894.63;4973019;28;120381;-69
2021/10/28 19:34:55;;;;;;;10.82;8.10;;;;;;;15.68;66.47;100894.91;4966368;28;120189;-68
2021/10/28 19:42:35;;;;;;;12.23;8.27;;;;;;;15.68;66.55;100887.38;4958354;28;119661;-68
2021/10/28 19:47:39;;;;;;;13.45;8.05;;;;;;;15.66;66.54;100887.09;4980629;28;119733;-69
2021/10/28 19:50:07;;;;;;;14.38;7.85;;;;;;;15.63;66.40;100885.28;4961389;28;121536;-68
2021/10/28 19:52:33;;;;;;;10.90;7.60;;;;;;;15.65;66.56;100896.63;4979687;28;119324;-70
2021/10/28 19:55:03;;;;;;;11.60;7.40;;;;;;;15.65;66.18;100896.63;4978779;28;120890;-68
2021/10/28 19:57:31;;;;;;;11.38;7.72;;;;;;;15.63;66.43;100890.81;4959052;28;119720;-69
2021/10/28 20:00:06;;;;;;;11.23;7.40;;;;;;;15.63;66.24;100893.59;4948350;28;119821;-69
2021/10/28 20:08:06;;;;;;;12.38;7.00;;;;;;;15.62;65.63;100881.00;4969198;28;120184;-69
2021/10/28 20:21:12;;;;;;;11.13;7.43;;;;;;;15.63;65.62;100879.75;4966272;28;121421;-70
2021/10/28 20:23:39;;;;;;;11.82;6.35;;;;;;;15.63;65.46;100882.53;4956478;28;121074;-69